Alden, MN

12:37 PM CDT on May 28, 2015 (GMT -0500)
15797 600th Ave (Baroda) | | Change Station
CLOSE
Current Station
Personal Weather Station
Location: Wells, MN
Elevation: 1230 ft
Nearby Weather Stations

Elev 1230 ft 43.71 °N, 93.67 °W | Updated 12 minutes ago

Clear
Clear
79.1 °F
Feels Like 80 °F
N
4.0
Wind Variable Wind from South
Gusts 16.0 mph

Today
High -- | Low -- °F
--% Chance of Precip.
Yesterday
High -- | Low -- °F
Precip. -- in
5:38 AM 8:45 PM
Waxing Gibbous, 77% visible
Pressure 30.08 in
Visibility 10.0 miles
Clouds Scattered Clouds 4900 ft
Heat Index 80 °F
Dew Point 57 °F
Humidity 46%
Rainfall 0.00 in
Snow Depth Not available.
UV 9 out of 12
Pollen 7.80 out of 12
Air Quality Not available.
Flu Activity Sporadic
METAR KAEL 281712Z AUTO 18010G16KT 140V200 10SM SCT049 26/13 A3008 RMK AO2

More Conditions Fewer Conditions

Pressure 30.08 in
Visibility 10.0 miles
Clouds Scattered Clouds 4900 ft
Heat Index 80 °F
Dew Point 57 °F
Humidity 46%
Rainfall 0.00 in
Snow Depth Not available.
UV 9 out of 12
Pollen 7.80 out of 12
Air Quality Not available.
Flu Activity Sporadic
METAR KAEL 281712Z AUTO 18010G16KT 140V200 10SM SCT049 26/13 A3008 RMK AO2

More Conditions Fewer Conditions

10-Day Weather Forecast

Almanac

Astronomy

May. 28, 2015 Rise Set
Actual Time
Civil Twilight
Nautical Twilight
Astronomical Twilight
Moon
Length of Visible Light
Length of Day
Tomorrow will be .
, % of the Moon is Illuminated

Today's Extremes

State Highs State Lows

Community

WunderPhotos

Upload Photos

1,825,007 photos uploaded!

WunderBlogs® & News

Nearby

Air Quality

  Air Quality AQ Index Pollutant
Not available.

Snow Depth

Station Depth Elevation

Earthquake Activity

City Distance Mag. Time & Date
Minimum magnitude displayed is 2.5.

Coastal Water Temperatures

Place Temperature

Stations

Nearby Weather Stations

Station Location Temp. Windchill Dew Point Humidity Wind Precip. Elev Updated Type